Grande Europa — ICGE — position and weather

sailwx.info

Track history (hours):
 
Tides and Currents Weather Stations Pressure Air Temp Water Temp Dewpoint Dewpoint Depression Visibility Wind Speed Wind Dir Waves Ship Positions

Grande Europa

Last reported at 2016-Feb-08 02:34 UTC. Time now 2016-Feb-08 12:33 UTC.
Position N 35°60' W 005°11'.

Length 183 m; draft 8.7 m.

Type: Ship (hazmat cat A). MMSI: 247206000.

Date/timePositionNaut miles runAvg speedWind from/ knotsBaromVisibWave heightAir tempDewpointWater temp
2016-Feb-08 02:34N 35°60' W 005°11'2120.3
2016-Feb-08 01:33N 35°55' W 005°35'13118.5
2016-Feb-07 18:28N 36°21' W 008°15'1818.2
2016-Feb-07 17:28N 36°26' W 008°36'1617.2
2016-Feb-07 16:31N 36°31' W 008°56'1818.3
2016-Feb-07 15:31N 36°36' W 009°18'1918.6
2016-Feb-07 14:31N 36°50' W 009°33'2218.5
2016-Feb-07 13:19N 37°12' W 009°39'1517.3
2016-Feb-07 12:28N 37°26' W 009°43'1617.0
2016-Feb-07 11:33N 37°42' W 009°46'2119.3
2016-Feb-07 10:28N 38°02' W 009°52'1516.9
2016-Feb-07 09:33N 38°17' W 009°57'1818.6
2016-Feb-07 08:34N 38°35' W 010°02'1918.4
2016-Feb-07 07:33N 38°53' W 010°07'2019.5
2016-Feb-07 06:31N 39°14' W 010°07'1818.1
2016-Feb-07 05:31N 39°32' W 010°06'1818.3
2016-Feb-07 04:31N 39°50' W 010°06'1818.2
2016-Feb-07 03:31N 40°08' W 010°06'1817.2
2016-Feb-07 02:28N 40°26' W 010°07'3417.7
2016-Feb-07 00:33N 40°60' W 010°07'2018.1
2016-Feb-06 23:28N 41°20' W 010°06'1616.6
2016-Feb-06 22:31N 41°35' W 010°07'1717.0
2016-Feb-06 21:31N 41°52' W 010°07'64013.6
2016-Feb-04 22:32N 50°22' W 000°47'5317.8
2016-Feb-04 19:33N 50°36' E 000°33'1716.8
2016-Feb-04 18:33N 50°47' E 000°53'1717.5
2016-Feb-04 17:33N 50°58' E 001°15'1918.9
2016-Feb-04 16:34N 51°09' E 001°39'1918.9
2016-Feb-04 15:33N 51°24' E 001°59'1615.8
2016-Feb-04 14:33N 51°21' E 002°24'1515.0
2016-Feb-04 13:33N 51°25' E 002°47'1515.1
2016-Feb-04 12:34N 51°24' E 003°11'1514.9
2016-Feb-04 11:33N 51°26' E 003°35'7 7.1
2016-Feb-04 10:33N 51°22' E 003°45'1110.6
2016-Feb-04 09:34N 51°26' E 004°00'9 9.5
2016-Feb-04 08:33N 51°22' E 004°14'6 6.1
2016-Feb-04 07:33N 51°16' E 004°17'2 1.6
2016-Feb-04 06:33N 51°16' E 004°14'1 1.0
2016-Feb-04 05:33N 51°16' E 004°13'0 0.0
2016-Feb-04 04:33N 51°16' E 004°13'0 0.0
2016-Feb-04 03:33N 51°16' E 004°13'0 0.0
2016-Feb-04 02:33N 51°16' E 004°13'0 0.0
2016-Feb-04 01:33N 51°16' E 004°13'0 0.0
2016-Feb-04 00:33N 51°16' E 004°13'0 0.0
2016-Feb-03 23:33N 51°16' E 004°13'0 0.0
2016-Feb-03 22:33N 51°16' E 004°13'0 0.0
2016-Feb-03 21:33N 51°16' E 004°13'0 0.0
2016-Feb-03 20:33N 51°16' E 004°13'0 0.0
2016-Feb-03 19:34N 51°16' E 004°13'0 0.0
2016-Feb-03 18:33N 51°16' E 004°13'0 0.0
2016-Feb-03 17:33N 51°16' E 004°13'0 0.0
2016-Feb-03 16:33N 51°16' E 004°13'0 0.0
2016-Feb-03 15:33N 51°16' E 004°13'0 0.0
2016-Feb-03 14:33N 51°16' E 004°13'0 0.0
2016-Feb-03 13:33N 51°16' E 004°13'0 0.0
2016-Feb-03 12:33N 51°16' E 004°13'0 0.0
2016-Feb-03 11:33N 51°16' E 004°13'0 0.0
2016-Feb-03 10:33N 51°16' E 004°13'0 0.0
2016-Feb-03 09:33N 51°16' E 004°13'0 0.0
2016-Feb-03 08:33N 51°16' E 004°13'0 0.0
2016-Feb-03 07:33N 51°16' E 004°13'0 0.0
2016-Feb-03 06:33N 51°16' E 004°13'0 0.0
2016-Feb-03 05:33N 51°16' E 004°13'0 0.2
2016-Feb-03 04:33N 51°16' E 004°13'2 2.4
2016-Feb-03 03:33N 51°16' E 004°17'2 2.1
2016-Feb-03 02:33N 51°17' E 004°19'1010.0
2016-Feb-03 01:33N 51°22' E 004°05'10 9.6
2016-Feb-03 00:33N 51°21' E 003°50'1111.3
2016-Feb-02 23:33N 51°25' E 003°34'1110.5
2016-Feb-02 22:34N 51°24' E 003°17'1010.3
2016-Feb-02 21:33N 51°28' E 003°02'1514.6
2016-Feb-02 20:33N 51°41' E 003°12'10 8.0
2016-Feb-02 19:18N 51°51' E 003°15'4 4.8
2016-Feb-02 18:24N 51°50' E 003°08'1 1.4
2016-Feb-02 17:33N 51°50' E 003°10'5 4.9
2016-Feb-02 16:33N 51°51' E 003°18'7412.3
2016-Feb-02 10:33N 52°60' E 004°03'1312.9
2016-Feb-02 09:33N 53°09' E 004°18'3611.8
2016-Feb-02 06:30N 53°42' E 004°43'1111.8
2016-Feb-02 05:33N 53°52' E 004°51'1212.2
2016-Feb-02 04:32N 54°04' E 004°57'1212.1
2016-Feb-02 03:33N 54°15' E 005°03'27212.8
2016-Feb-01 06:18N 57°50' E 010°02'1216.7
2016-Feb-01 05:33N 57°52' E 010°25'1616.3
2016-Feb-01 04:33N 57°52' E 010°56'1716.7
2016-Feb-01 03:33N 57°52' E 011°27'1111.0
2016-Feb-01 02:33N 57°59' E 011°43'2 1.5
2016-Feb-01 01:34N 58°01' E 011°42'0 0.0
2016-Feb-01 00:33N 58°01' E 011°42'0 0.0
2016-Jan-31 23:33N 58°01' E 011°42'0 0.0
2016-Jan-31 22:33N 58°01' E 011°42'0 0.0
2016-Jan-31 21:33N 58°01' E 011°42'0 0.0
2016-Jan-31 20:33N 58°01' E 011°42'0 0.0
2016-Jan-31 19:34N 58°01' E 011°42'0 0.0
2016-Jan-31 18:33N 58°01' E 011°42'0 0.0
2016-Jan-31 17:33N 58°01' E 011°42'0 0.0
2016-Jan-31 16:34N 58°01' E 011°42'0 0.0
2016-Jan-31 15:34N 58°01' E 011°42'0 0.1
2016-Jan-31 14:32N 58°01' E 011°42'7 6.9
2016-Jan-31 13:34N 57°55' E 011°35'10 9.6
2016-Jan-31 12:33N 57°51' E 011°19'6 5.7
2016-Jan-31 11:34N 57°51' E 011°08'5 4.7
2016-Jan-31 10:33N 57°56' E 011°07'0 0.3
2016-Jan-31 09:33N 57°55' E 011°07'3 2.9
2016-Jan-31 08:33N 57°52' E 011°06'4 4.3
2016-Jan-31 07:33N 57°48' E 011°06'5 5.4
2016-Jan-31 06:33N 57°54' E 011°07'4 4.2
2016-Jan-31 05:33N 57°58' E 011°07'2 2.1
2016-Jan-31 04:33N 57°57' E 011°04'3 2.9
2016-Jan-31 03:33N 57°54' E 011°06'8 8.3
2016-Jan-31 02:33N 57°56' E 010°50'1413.6
2016-Jan-31 01:33N 57°53' E 010°26'14916.5
2016-Jan-30 16:31N 56°00' E 007°26'1616.5
2016-Jan-30 15:33N 55°45' E 007°19'1312.9
2016-Jan-30 14:34N 55°32' E 007°20'1414.4
2016-Jan-30 13:34N 55°26' E 007°43'1515.1
2016-Jan-30 12:34N 55°24' E 008°09'10 9.6
2016-Jan-30 11:33N 55°28' E 008°25'1 1.0
2016-Jan-30 10:33N 55°28' E 008°27'0 0.0
2016-Jan-30 09:34N 55°28' E 008°27'0 0.0
2016-Jan-30 08:33N 55°28' E 008°27'0 0.0
2016-Jan-30 07:33N 55°28' E 008°27'0 0.0
2016-Jan-30 06:33N 55°28' E 008°27'0 0.0
2016-Jan-30 05:33N 55°28' E 008°27'2 1.5
2016-Jan-30 04:34N 55°28' E 008°25'10 9.7
2016-Jan-30 03:34N 55°24' E 008°10'1313.4
2016-Jan-30 02:34N 55°16' E 007°50'1414.5
2016-Jan-30 01:34N 55°06' E 007°33'1716.5
2016-Jan-30 00:33N 54°57' E 007°08'7117.1
2016-Jan-29 20:24N 54°27' E 005°16'1416.7
2016-Jan-29 19:33N 54°21' E 004°55'1615.5
2016-Jan-29 18:32N 54°07' E 004°42'16116.1
2016-Jan-29 08:33N 51°46' E 002°33'1818.6
2016-Jan-29 07:33N 51°32' E 002°15'1919.0
2016-Jan-29 06:34N 51°18' E 001°55'2020.0
2016-Jan-29 05:34N 51°02' E 001°35'2019.6
2016-Jan-29 04:32N 50°44' E 001°20'2618.3
2016-Jan-29 03:08N 50°29' E 000°48'  
Track history (hours):
 
Tides and Currents Weather Stations Pressure Air Temp Water Temp Dewpoint Dewpoint Depression Visibility Wind Speed Wind Dir Waves Ship Positions

Grande Europa

Last reported at 2016-Feb-08 02:34 UTC. Time now 2016-Feb-08 12:33 UTC.
Position N 35°60' W 005°11'.

Length 183 m; draft 8.7 m.

Type: Ship (hazmat cat A). MMSI: 247206000.

Date/timePositionNaut miles runAvg speedWind from/ knotsBaromVisibWave heightAir tempDewpointWater temp
2016-Feb-08 02:34N 35°60' W 005°11'2120.3
2016-Feb-08 01:33N 35°55' W 005°35'13118.5
2016-Feb-07 18:28N 36°21' W 008°15'1818.2
2016-Feb-07 17:28N 36°26' W 008°36'1617.2
2016-Feb-07 16:31N 36°31' W 008°56'1818.3
2016-Feb-07 15:31N 36°36' W 009°18'1918.6
2016-Feb-07 14:31N 36°50' W 009°33'2218.5
2016-Feb-07 13:19N 37°12' W 009°39'1517.3
2016-Feb-07 12:28N 37°26' W 009°43'1617.0
2016-Feb-07 11:33N 37°42' W 009°46'2119.3
2016-Feb-07 10:28N 38°02' W 009°52'1516.9
2016-Feb-07 09:33N 38°17' W 009°57'1818.6
2016-Feb-07 08:34N 38°35' W 010°02'1918.4
2016-Feb-07 07:33N 38°53' W 010°07'2019.5
2016-Feb-07 06:31N 39°14' W 010°07'1818.1
2016-Feb-07 05:31N 39°32' W 010°06'1818.3
2016-Feb-07 04:31N 39°50' W 010°06'1818.2
2016-Feb-07 03:31N 40°08' W 010°06'1817.2
2016-Feb-07 02:28N 40°26' W 010°07'3417.7
2016-Feb-07 00:33N 40°60' W 010°07'2018.1
2016-Feb-06 23:28N 41°20' W 010°06'1616.6
2016-Feb-06 22:31N 41°35' W 010°07'1717.0
2016-Feb-06 21:31N 41°52' W 010°07'64013.6
2016-Feb-04 22:32N 50°22' W 000°47'5317.8
2016-Feb-04 19:33N 50°36' E 000°33'1716.8
2016-Feb-04 18:33N 50°47' E 000°53'1717.5
2016-Feb-04 17:33N 50°58' E 001°15'1918.9
2016-Feb-04 16:34N 51°09' E 001°39'1918.9
2016-Feb-04 15:33N 51°24' E 001°59'1615.8
2016-Feb-04 14:33N 51°21' E 002°24'1515.0
2016-Feb-04 13:33N 51°25' E 002°47'1515.1
2016-Feb-04 12:34N 51°24' E 003°11'1514.9
2016-Feb-04 11:33N 51°26' E 003°35'7 7.1
2016-Feb-04 10:33N 51°22' E 003°45'1110.6
2016-Feb-04 09:34N 51°26' E 004°00'9 9.5
2016-Feb-04 08:33N 51°22' E 004°14'6 6.1
2016-Feb-04 07:33N 51°16' E 004°17'2 1.6
2016-Feb-04 06:33N 51°16' E 004°14'1 1.0
2016-Feb-04 05:33N 51°16' E 004°13'0 0.0
2016-Feb-04 04:33N 51°16' E 004°13'0 0.0
2016-Feb-04 03:33N 51°16' E 004°13'0 0.0
2016-Feb-04 02:33N 51°16' E 004°13'0 0.0
2016-Feb-04 01:33N 51°16' E 004°13'0 0.0
2016-Feb-04 00:33N 51°16' E 004°13'0 0.0
2016-Feb-03 23:33N 51°16' E 004°13'0 0.0
2016-Feb-03 22:33N 51°16' E 004°13'0 0.0
2016-Feb-03 21:33N 51°16' E 004°13'0 0.0
2016-Feb-03 20:33N 51°16' E 004°13'0 0.0
2016-Feb-03 19:34N 51°16' E 004°13'0 0.0
2016-Feb-03 18:33N 51°16' E 004°13'0 0.0
2016-Feb-03 17:33N 51°16' E 004°13'0 0.0
2016-Feb-03 16:33N 51°16' E 004°13'0 0.0
2016-Feb-03 15:33N 51°16' E 004°13'0 0.0
2016-Feb-03 14:33N 51°16' E 004°13'0 0.0
2016-Feb-03 13:33N 51°16' E 004°13'0 0.0
2016-Feb-03 12:33N 51°16' E 004°13'0 0.0
2016-Feb-03 11:33N 51°16' E 004°13'0 0.0
2016-Feb-03 10:33N 51°16' E 004°13'0 0.0
2016-Feb-03 09:33N 51°16' E 004°13'0 0.0
2016-Feb-03 08:33N 51°16' E 004°13'0 0.0
2016-Feb-03 07:33N 51°16' E 004°13'0 0.0
2016-Feb-03 06:33N 51°16' E 004°13'0 0.0
2016-Feb-03 05:33N 51°16' E 004°13'0 0.2
2016-Feb-03 04:33N 51°16' E 004°13'2 2.4
2016-Feb-03 03:33N 51°16' E 004°17'2 2.1
2016-Feb-03 02:33N 51°17' E 004°19'1010.0
2016-Feb-03 01:33N 51°22' E 004°05'10 9.6
2016-Feb-03 00:33N 51°21' E 003°50'1111.3
2016-Feb-02 23:33N 51°25' E 003°34'1110.5
2016-Feb-02 22:34N 51°24' E 003°17'1010.3
2016-Feb-02 21:33N 51°28' E 003°02'1514.6
2016-Feb-02 20:33N 51°41' E 003°12'10 8.0
2016-Feb-02 19:18N 51°51' E 003°15'4 4.8
2016-Feb-02 18:24N 51°50' E 003°08'1 1.4
2016-Feb-02 17:33N 51°50' E 003°10'5 4.9
2016-Feb-02 16:33N 51°51' E 003°18'7412.3
2016-Feb-02 10:33N 52°60' E 004°03'1312.9
2016-Feb-02 09:33N 53°09' E 004°18'3611.8
2016-Feb-02 06:30N 53°42' E 004°43'1111.8
2016-Feb-02 05:33N 53°52' E 004°51'1212.2
2016-Feb-02 04:32N 54°04' E 004°57'1212.1
2016-Feb-02 03:33N 54°15' E 005°03'27212.8
2016-Feb-01 06:18N 57°50' E 010°02'1216.7
2016-Feb-01 05:33N 57°52' E 010°25'1616.3
2016-Feb-01 04:33N 57°52' E 010°56'1716.7
2016-Feb-01 03:33N 57°52' E 011°27'1111.0
2016-Feb-01 02:33N 57°59' E 011°43'2 1.5
2016-Feb-01 01:34N 58°01' E 011°42'0 0.0
2016-Feb-01 00:33N 58°01' E 011°42'0 0.0
2016-Jan-31 23:33N 58°01' E 011°42'0 0.0
2016-Jan-31 22:33N 58°01' E 011°42'0 0.0
2016-Jan-31 21:33N 58°01' E 011°42'0 0.0
2016-Jan-31 20:33N 58°01' E 011°42'0 0.0
2016-Jan-31 19:34N 58°01' E 011°42'0 0.0
2016-Jan-31 18:33N 58°01' E 011°42'0 0.0
2016-Jan-31 17:33N 58°01' E 011°42'0 0.0
2016-Jan-31 16:34N 58°01' E 011°42'0 0.0
2016-Jan-31 15:34N 58°01' E 011°42'0 0.1
2016-Jan-31 14:32N 58°01' E 011°42'7 6.9
2016-Jan-31 13:34N 57°55' E 011°35'10 9.6
2016-Jan-31 12:33N 57°51' E 011°19'6 5.7
2016-Jan-31 11:34N 57°51' E 011°08'5 4.7
2016-Jan-31 10:33N 57°56' E 011°07'0 0.3
2016-Jan-31 09:33N 57°55' E 011°07'3 2.9
2016-Jan-31 08:33N 57°52' E 011°06'4 4.3
2016-Jan-31 07:33N 57°48' E 011°06'5 5.4
2016-Jan-31 06:33N 57°54' E 011°07'4 4.2
2016-Jan-31 05:33N 57°58' E 011°07'2 2.1
2016-Jan-31 04:33N 57°57' E 011°04'3 2.9
2016-Jan-31 03:33N 57°54' E 011°06'8 8.3
2016-Jan-31 02:33N 57°56' E 010°50'1413.6
2016-Jan-31 01:33N 57°53' E 010°26'14916.5
2016-Jan-30 16:31N 56°00' E 007°26'1616.5
2016-Jan-30 15:33N 55°45' E 007°19'1312.9
2016-Jan-30 14:34N 55°32' E 007°20'1414.4
2016-Jan-30 13:34N 55°26' E 007°43'1515.1
2016-Jan-30 12:34N 55°24' E 008°09'10 9.6
2016-Jan-30 11:33N 55°28' E 008°25'1 1.0
2016-Jan-30 10:33N 55°28' E 008°27'0 0.0
2016-Jan-30 09:34N 55°28' E 008°27'0 0.0
2016-Jan-30 08:33N 55°28' E 008°27'0 0.0
2016-Jan-30 07:33N 55°28' E 008°27'0 0.0
2016-Jan-30 06:33N 55°28' E 008°27'0 0.0
2016-Jan-30 05:33N 55°28' E 008°27'2 1.5
2016-Jan-30 04:34N 55°28' E 008°25'10 9.7
2016-Jan-30 03:34N 55°24' E 008°10'1313.4
2016-Jan-30 02:34N 55°16' E 007°50'1414.5
2016-Jan-30 01:34N 55°06' E 007°33'1716.5
2016-Jan-30 00:33N 54°57' E 007°08'7117.1
2016-Jan-29 20:24N 54°27' E 005°16'1416.7
2016-Jan-29 19:33N 54°21' E 004°55'1615.5
2016-Jan-29 18:32N 54°07' E 004°42'16116.1
2016-Jan-29 08:33N 51°46' E 002°33'1818.6
2016-Jan-29 07:33N 51°32' E 002°15'1919.0
2016-Jan-29 06:34N 51°18' E 001°55'2020.0
2016-Jan-29 05:34N 51°02' E 001°35'2019.6
2016-Jan-29 04:32N 50°44' E 001°20'2618.3
2016-Jan-29 03:08N 50°29' E 000°48'  

Dump ship's entire track history